sensor_id;sensor_type;location;lat;lon;timestamp;P1;durP1;ratioP1;P2;durP2;ratioP2
3597;SDS011;1813;52.016;8.714;2024-01-10T00:00:30;20.20;;;11.00;;
3597;SDS011;1813;52.016;8.714;2024-01-10T00:03:03;18.77;;;11.10;;
3597;SDS011;1813;52.016;8.714;2024-01-10T00:05:37;22.63;;;11.63;;
3597;SDS011;1813;52.016;8.714;2024-01-10T00:08:10;23.90;;;11.40;;
3597;SDS011;1813;52.016;8.714;2024-01-10T00:10:46;20.33;;;11.37;;
3597;SDS011;1813;52.016;8.714;2024-01-10T00:13:19;20.20;;;12.07;;
3597;SDS011;1813;52.016;8.714;2024-01-10T00:15:53;24.83;;;12.50;;
3597;SDS011;1813;52.016;8.714;2024-01-10T00:18:28;22.40;;;12.67;;
3597;SDS011;1813;52.016;8.714;2024-01-10T00:21:02;20.80;;;12.10;;
3597;SDS011;1813;52.016;8.714;2024-01-10T00:23:35;23.50;;;11.70;;
3597;SDS011;1813;52.016;8.714;2024-01-10T00:26:11;21.60;;;12.10;;
3597;SDS011;1813;52.016;8.714;2024-01-10T00:28:45;23.40;;;12.43;;
3597;SDS011;1813;52.016;8.714;2024-01-10T00:31:18;23.70;;;12.93;;
3597;SDS011;1813;52.016;8.714;2024-01-10T00:33:52;21.67;;;12.30;;
3597;SDS011;1813;52.016;8.714;2024-01-10T00:36:25;24.13;;;12.40;;
3597;SDS011;1813;52.016;8.714;2024-01-10T00:38:58;23.07;;;12.43;;
3597;SDS011;1813;52.016;8.714;2024-01-10T00:41:34;21.90;;;12.40;;
3597;SDS011;1813;52.016;8.714;2024-01-10T00:44:08;22.57;;;12.27;;
3597;SDS011;1813;52.016;8.714;2024-01-10T00:46:41;24.30;;;12.97;;
3597;SDS011;1813;52.016;8.714;2024-01-10T00:49:20;23.23;;;12.90;;
3597;SDS011;1813;52.016;8.714;2024-01-10T00:52:02;25.47;;;13.13;;
3597;SDS011;1813;52.016;8.714;2024-01-10T00:54:36;25.60;;;13.17;;
3597;SDS011;1813;52.016;8.714;2024-01-10T00:57:12;26.00;;;13.30;;
3597;SDS011;1813;52.016;8.714;2024-01-10T00:59:45;23.83;;;13.47;;
3597;SDS011;1813;52.016;8.714;2024-01-10T01:02:19;25.33;;;13.63;;
3597;SDS011;1813;52.016;8.714;2024-01-10T01:04:52;23.67;;;12.30;;
3597;SDS011;1813;52.016;8.714;2024-01-10T01:07:25;23.43;;;12.83;;
3597;SDS011;1813;52.016;8.714;2024-01-10T01:09:59;25.50;;;12.37;;
3597;SDS011;1813;52.016;8.714;2024-01-10T01:12:35;25.00;;;13.67;;
3597;SDS011;1813;52.016;8.714;2024-01-10T01:15:09;24.30;;;12.60;;
3597;SDS011;1813;52.016;8.714;2024-01-10T01:17:42;25.20;;;13.70;;
3597;SDS011;1813;52.016;8.714;2024-01-10T01:20:16;25.87;;;13.67;;
3597;SDS011;1813;52.016;8.714;2024-01-10T01:22:49;26.67;;;13.90;;
3597;SDS011;1813;52.016;8.714;2024-01-10T01:25:23;28.27;;;13.80;;
3597;SDS011;1813;52.016;8.714;2024-01-10T01:27:59;23.67;;;12.97;;
3597;SDS011;1813;52.016;8.714;2024-01-10T01:30:37;23.30;;;13.07;;
3597;SDS011;1813;52.016;8.714;2024-01-10T01:33:13;24.47;;;13.03;;
3597;SDS011;1813;52.016;8.714;2024-01-10T01:35:46;23.43;;;13.10;;
3597;SDS011;1813;52.016;8.714;2024-01-10T01:38:19;24.10;;;13.13;;
3597;SDS011;1813;52.016;8.714;2024-01-10T01:40:58;21.60;;;12.60;;
3597;SDS011;1813;52.016;8.714;2024-01-10T01:43:38;23.30;;;12.90;;
3597;SDS011;1813;52.016;8.714;2024-01-10T01:46:29;24.17;;;12.53;;
3597;SDS011;1813;52.016;8.714;2024-01-10T01:49:07;21.33;;;12.53;;
3597;SDS011;1813;52.016;8.714;2024-01-10T01:51:43;24.70;;;13.17;;
3597;SDS011;1813;52.016;8.714;2024-01-10T01:54:16;21.30;;;12.40;;
3597;SDS011;1813;52.016;8.714;2024-01-10T01:56:52;23.23;;;12.47;;
3597;SDS011;1813;52.016;8.714;2024-01-10T01:59:30;23.37;;;13.40;;
3597;SDS011;1813;52.016;8.714;2024-01-10T02:02:03;24.60;;;13.50;;
3597;SDS011;1813;52.016;8.714;2024-01-10T02:04:37;25.23;;;12.13;;
3597;SDS011;1813;52.016;8.714;2024-01-10T02:07:10;21.87;;;13.00;;
3597;SDS011;1813;52.016;8.714;2024-01-10T02:09:44;22.27;;;12.20;;
3597;SDS011;1813;52.016;8.714;2024-01-10T02:12:20;27.00;;;13.97;;
3597;SDS011;1813;52.016;8.714;2024-01-10T02:15:02;25.50;;;13.67;;
3597;SDS011;1813;52.016;8.714;2024-01-10T02:17:38;26.10;;;13.30;;
3597;SDS011;1813;52.016;8.714;2024-01-10T02:20:12;24.93;;;13.60;;
3597;SDS011;1813;52.016;8.714;2024-01-10T02:22:47;25.60;;;13.73;;
3597;SDS011;1813;52.016;8.714;2024-01-10T02:25:23;26.77;;;13.30;;
3597;SDS011;1813;52.016;8.714;2024-01-10T02:27:56;26.73;;;14.10;;
3597;SDS011;1813;52.016;8.714;2024-01-10T02:30:30;24.30;;;14.10;;
3597;SDS011;1813;52.016;8.714;2024-01-10T02:33:03;27.43;;;14.70;;
3597;SDS011;1813;52.016;8.714;2024-01-10T02:35:37;30.53;;;14.50;;
3597;SDS011;1813;52.016;8.714;2024-01-10T02:38:10;23.80;;;12.97;;
3597;SDS011;1813;52.016;8.714;2024-01-10T02:40:46;24.73;;;14.40;;
3597;SDS011;1813;52.016;8.714;2024-01-10T02:43:19;25.10;;;13.70;;
3597;SDS011;1813;52.016;8.714;2024-01-10T02:45:53;29.70;;;14.50;;
3597;SDS011;1813;52.016;8.714;2024-01-10T02:48:26;25.23;;;14.47;;
3597;SDS011;1813;52.016;8.714;2024-01-10T02:51:07;29.70;;;14.07;;
3597;SDS011;1813;52.016;8.714;2024-01-10T02:53:40;22.80;;;13.23;;
3597;SDS011;1813;52.016;8.714;2024-01-10T02:56:16;30.83;;;15.00;;
3597;SDS011;1813;52.016;8.714;2024-01-10T02:58:49;25.50;;;14.33;;
3597;SDS011;1813;52.016;8.714;2024-01-10T03:01:22;28.63;;;14.87;;
3597;SDS011;1813;52.016;8.714;2024-01-10T03:03:59;26.80;;;14.33;;
3597;SDS011;1813;52.016;8.714;2024-01-10T03:06:35;27.97;;;14.87;;
3597;SDS011;1813;52.016;8.714;2024-01-10T03:09:13;25.50;;;14.20;;
3597;SDS011;1813;52.016;8.714;2024-01-10T03:11:49;26.33;;;14.30;;
3597;SDS011;1813;52.016;8.714;2024-01-10T03:14:25;28.50;;;15.00;;
3597;SDS011;1813;52.016;8.714;2024-01-10T03:16:58;27.20;;;14.50;;
3597;SDS011;1813;52.016;8.714;2024-01-10T03:19:32;27.53;;;15.27;;
3597;SDS011;1813;52.016;8.714;2024-01-10T03:22:07;27.13;;;14.73;;
3597;SDS011;1813;52.016;8.714;2024-01-10T03:24:40;28.87;;;15.80;;
3597;SDS011;1813;52.016;8.714;2024-01-10T03:27:17;26.70;;;14.63;;
3597;SDS011;1813;52.016;8.714;2024-01-10T03:29:50;28.17;;;14.90;;
3597;SDS011;1813;52.016;8.714;2024-01-10T03:32:23;26.37;;;15.23;;
3597;SDS011;1813;52.016;8.714;2024-01-10T03:34:56;28.43;;;15.33;;
3597;SDS011;1813;52.016;8.714;2024-01-10T03:37:30;29.47;;;15.40;;
3597;SDS011;1813;52.016;8.714;2024-01-10T03:40:04;28.10;;;14.80;;
3597;SDS011;1813;52.016;8.714;2024-01-10T03:42:40;30.80;;;17.10;;
3597;SDS011;1813;52.016;8.714;2024-01-10T03:45:23;26.60;;;14.40;;
3597;SDS011;1813;52.016;8.714;2024-01-10T03:47:59;30.80;;;15.97;;
3597;SDS011;1813;52.016;8.714;2024-01-10T03:50:34;34.03;;;16.40;;
3597;SDS011;1813;52.016;8.714;2024-01-10T03:53:07;29.37;;;14.80;;
3597;SDS011;1813;52.016;8.714;2024-01-10T03:55:40;38.07;;;19.30;;
3597;SDS011;1813;52.016;8.714;2024-01-10T03:58:16;56.43;;;24.50;;
3597;SDS011;1813;52.016;8.714;2024-01-10T04:00:49;162.67;;;55.80;;
3597;SDS011;1813;52.016;8.714;2024-01-10T04:03:23;295.37;;;102.83;;
3597;SDS011;1813;52.016;8.714;2024-01-10T04:05:56;141.03;;;52.53;;
3597;SDS011;1813;52.016;8.714;2024-01-10T04:08:32;97.13;;;39.17;;
3597;SDS011;1813;52.016;8.714;2024-01-10T04:11:09;114.87;;;43.97;;
3597;SDS011;1813;52.016;8.714;2024-01-10T04:13:47;50.33;;;22.33;;
3597;SDS011;1813;52.016;8.714;2024-01-10T04:16:22;34.60;;;16.97;;
3597;SDS011;1813;52.016;8.714;2024-01-10T04:19:00;31.60;;;16.30;;
3597;SDS011;1813;52.016;8.714;2024-01-10T04:21:35;27.53;;;14.80;;
3597;SDS011;1813;52.016;8.714;2024-01-10T04:24:09;29.80;;;15.67;;
3597;SDS011;1813;52.016;8.714;2024-01-10T04:26:49;27.70;;;15.43;;
3597;SDS011;1813;52.016;8.714;2024-01-10T04:29:25;34.50;;;17.53;;
3597;SDS011;1813;52.016;8.714;2024-01-10T04:32:05;32.97;;;17.33;;
3597;SDS011;1813;52.016;8.714;2024-01-10T04:34:46;31.57;;;16.13;;
3597;SDS011;1813;52.016;8.714;2024-01-10T04:37:20;32.00;;;16.10;;
3597;SDS011;1813;52.016;8.714;2024-01-10T04:39:53;31.00;;;16.30;;
3597;SDS011;1813;52.016;8.714;2024-01-10T04:42:26;32.60;;;17.30;;
3597;SDS011;1813;52.016;8.714;2024-01-10T04:45:02;35.93;;;17.33;;
3597;SDS011;1813;52.016;8.714;2024-01-10T04:47:37;31.73;;;16.60;;
3597;SDS011;1813;52.016;8.714;2024-01-10T04:50:11;37.73;;;18.13;;
3597;SDS011;1813;52.016;8.714;2024-01-10T04:52:44;36.47;;;18.03;;
3597;SDS011;1813;52.016;8.714;2024-01-10T04:55:17;32.30;;;17.67;;
3597;SDS011;1813;52.016;8.714;2024-01-10T04:57:50;32.23;;;17.37;;
3597;SDS011;1813;52.016;8.714;2024-01-10T05:00:27;33.17;;;17.30;;
3597;SDS011;1813;52.016;8.714;2024-01-10T05:03:00;35.20;;;17.07;;
3597;SDS011;1813;52.016;8.714;2024-01-10T05:05:33;29.03;;;16.70;;
3597;SDS011;1813;52.016;8.714;2024-01-10T05:08:07;34.37;;;17.33;;
3597;SDS011;1813;52.016;8.714;2024-01-10T05:10:40;37.20;;;17.33;;
3597;SDS011;1813;52.016;8.714;2024-01-10T05:13:14;35.40;;;17.70;;
3597;SDS011;1813;52.016;8.714;2024-01-10T05:15:50;34.77;;;17.97;;
3597;SDS011;1813;52.016;8.714;2024-01-10T05:18:23;35.53;;;17.60;;
3597;SDS011;1813;52.016;8.714;2024-01-10T05:20:56;36.07;;;18.70;;
3597;SDS011;1813;52.016;8.714;2024-01-10T05:23:30;36.40;;;18.30;;
3597;SDS011;1813;52.016;8.714;2024-01-10T05:26:05;38.87;;;19.10;;
3597;SDS011;1813;52.016;8.714;2024-01-10T05:28:47;33.90;;;18.47;;
3597;SDS011;1813;52.016;8.714;2024-01-10T05:31:28;39.13;;;19.00;;
3597;SDS011;1813;52.016;8.714;2024-01-10T05:34:19;35.47;;;19.60;;
3597;SDS011;1813;52.016;8.714;2024-01-10T05:37:02;35.90;;;19.70;;
3597;SDS011;1813;52.016;8.714;2024-01-10T05:39:45;38.33;;;19.07;;
3597;SDS011;1813;52.016;8.714;2024-01-10T05:42:18;36.43;;;19.10;;
3597;SDS011;1813;52.016;8.714;2024-01-10T05:44:54;33.77;;;16.93;;
3597;SDS011;1813;52.016;8.714;2024-01-10T05:47:30;38.13;;;19.23;;
3597;SDS011;1813;52.016;8.714;2024-01-10T05:50:03;42.10;;;18.70;;
3597;SDS011;1813;52.016;8.714;2024-01-10T05:52:38;34.50;;;17.30;;
3597;SDS011;1813;52.016;8.714;2024-01-10T05:55:12;33.83;;;18.40;;
3597;SDS011;1813;52.016;8.714;2024-01-10T05:57:46;36.87;;;18.10;;
3597;SDS011;1813;52.016;8.714;2024-01-10T06:00:22;36.43;;;18.37;;
3597;SDS011;1813;52.016;8.714;2024-01-10T06:03:04;35.43;;;17.87;;
3597;SDS011;1813;52.016;8.714;2024-01-10T06:05:41;36.13;;;17.70;;
3597;SDS011;1813;52.016;8.714;2024-01-10T06:08:17;34.13;;;17.27;;
3597;SDS011;1813;52.016;8.714;2024-01-10T06:10:51;33.27;;;17.90;;
3597;SDS011;1813;52.016;8.714;2024-01-10T06:13:33;35.10;;;17.30;;
3597;SDS011;1813;52.016;8.714;2024-01-10T06:16:07;33.97;;;17.80;;
3597;SDS011;1813;52.016;8.714;2024-01-10T06:19:04;35.50;;;17.50;;
3597;SDS011;1813;52.016;8.714;2024-01-10T06:21:42;36.97;;;18.67;;
3597;SDS011;1813;52.016;8.714;2024-01-10T06:24:22;34.23;;;18.10;;
3597;SDS011;1813;52.016;8.714;2024-01-10T06:26:55;33.53;;;18.70;;
3597;SDS011;1813;52.016;8.714;2024-01-10T06:29:29;34.30;;;18.70;;
3597;SDS011;1813;52.016;8.714;2024-01-10T06:32:03;34.93;;;18.40;;
3597;SDS011;1813;52.016;8.714;2024-01-10T06:34:40;33.90;;;18.67;;
3597;SDS011;1813;52.016;8.714;2024-01-10T06:37:13;36.43;;;17.77;;
3597;SDS011;1813;52.016;8.714;2024-01-10T06:39:49;39.30;;;19.20;;
3597;SDS011;1813;52.016;8.714;2024-01-10T06:42:23;38.20;;;18.20;;
3597;SDS011;1813;52.016;8.714;2024-01-10T06:44:56;36.97;;;18.90;;
3597;SDS011;1813;52.016;8.714;2024-01-10T06:47:29;35.93;;;18.13;;
3597;SDS011;1813;52.016;8.714;2024-01-10T06:50:08;43.67;;;18.67;;
3597;SDS011;1813;52.016;8.714;2024-01-10T06:52:42;34.83;;;18.27;;
3597;SDS011;1813;52.016;8.714;2024-01-10T06:55:18;37.23;;;18.67;;
3597;SDS011;1813;52.016;8.714;2024-01-10T06:57:54;40.30;;;20.50;;
3597;SDS011;1813;52.016;8.714;2024-01-10T07:00:30;39.30;;;20.20;;
3597;SDS011;1813;52.016;8.714;2024-01-10T07:03:11;38.20;;;19.60;;
3597;SDS011;1813;52.016;8.714;2024-01-10T07:05:47;37.17;;;18.83;;
3597;SDS011;1813;52.016;8.714;2024-01-10T07:08:23;37.40;;;19.43;;
3597;SDS011;1813;52.016;8.714;2024-01-10T07:10:56;38.03;;;19.90;;
3597;SDS011;1813;52.016;8.714;2024-01-10T07:13:30;37.47;;;20.23;;
3597;SDS011;1813;52.016;8.714;2024-01-10T07:16:06;40.17;;;20.17;;
3597;SDS011;1813;52.016;8.714;2024-01-10T07:18:40;40.97;;;20.37;;
3597;SDS011;1813;52.016;8.714;2024-01-10T07:21:23;41.27;;;20.80;;
3597;SDS011;1813;52.016;8.714;2024-01-10T07:23:59;38.20;;;20.43;;
3597;SDS011;1813;52.016;8.714;2024-01-10T07:26:32;37.63;;;19.80;;
3597;SDS011;1813;52.016;8.714;2024-01-10T07:29:08;35.60;;;18.80;;
3597;SDS011;1813;52.016;8.714;2024-01-10T07:31:42;34.57;;;18.63;;
3597;SDS011;1813;52.016;8.714;2024-01-10T07:34:17;37.13;;;19.10;;
3597;SDS011;1813;52.016;8.714;2024-01-10T07:37:02;36.50;;;19.13;;
3597;SDS011;1813;52.016;8.714;2024-01-10T07:39:39;35.47;;;19.07;;
3597;SDS011;1813;52.016;8.714;2024-01-10T07:42:19;39.03;;;19.77;;
3597;SDS011;1813;52.016;8.714;2024-01-10T07:44:59;36.33;;;18.90;;
3597;SDS011;1813;52.016;8.714;2024-01-10T07:47:46;37.63;;;19.00;;
3597;SDS011;1813;52.016;8.714;2024-01-10T07:50:23;40.43;;;19.57;;
3597;SDS011;1813;52.016;8.714;2024-01-10T07:53:00;40.67;;;20.50;;
3597;SDS011;1813;52.016;8.714;2024-01-10T07:55:34;39.93;;;20.50;;
3597;SDS011;1813;52.016;8.714;2024-01-10T07:58:08;38.70;;;19.60;;
3597;SDS011;1813;52.016;8.714;2024-01-10T08:00:41;37.50;;;19.53;;
3597;SDS011;1813;52.016;8.714;2024-01-10T08:03:15;40.27;;;20.57;;
3597;SDS011;1813;52.016;8.714;2024-01-10T08:05:48;41.17;;;19.70;;
3597;SDS011;1813;52.016;8.714;2024-01-10T08:08:24;38.10;;;19.40;;
3597;SDS011;1813;52.016;8.714;2024-01-10T08:10:58;38.27;;;20.30;;
3597;SDS011;1813;52.016;8.714;2024-01-10T08:13:31;41.70;;;21.37;;
3597;SDS011;1813;52.016;8.714;2024-01-10T08:16:05;38.80;;;19.67;;
3597;SDS011;1813;52.016;8.714;2024-01-10T08:18:39;41.17;;;20.90;;
3597;SDS011;1813;52.016;8.714;2024-01-10T08:21:12;38.73;;;20.27;;
3597;SDS011;1813;52.016;8.714;2024-01-10T08:23:48;41.20;;;21.03;;
3597;SDS011;1813;52.016;8.714;2024-01-10T08:26:21;41.40;;;20.90;;
3597;SDS011;1813;52.016;8.714;2024-01-10T08:28:55;40.13;;;20.10;;
3597;SDS011;1813;52.016;8.714;2024-01-10T08:31:31;38.13;;;20.07;;
3597;SDS011;1813;52.016;8.714;2024-01-10T08:34:11;40.13;;;20.10;;
3597;SDS011;1813;52.016;8.714;2024-01-10T08:36:57;44.33;;;20.37;;
3597;SDS011;1813;52.016;8.714;2024-01-10T08:39:51;41.50;;;20.60;;
3597;SDS011;1813;52.016;8.714;2024-01-10T08:42:24;39.80;;;20.60;;
3597;SDS011;1813;52.016;8.714;2024-01-10T08:45:07;39.13;;;19.33;;
3597;SDS011;1813;52.016;8.714;2024-01-10T08:47:42;42.03;;;21.57;;
3597;SDS011;1813;52.016;8.714;2024-01-10T08:50:15;57.93;;;26.30;;
3597;SDS011;1813;52.016;8.714;2024-01-10T08:52:48;46.63;;;22.23;;
3597;SDS011;1813;52.016;8.714;2024-01-10T08:55:24;40.30;;;19.70;;
3597;SDS011;1813;52.016;8.714;2024-01-10T08:57:57;40.40;;;20.70;;
3597;SDS011;1813;52.016;8.714;2024-01-10T09:00:31;50.97;;;21.33;;
3597;SDS011;1813;52.016;8.714;2024-01-10T09:03:04;41.90;;;21.40;;
3597;SDS011;1813;52.016;8.714;2024-01-10T09:05:39;38.50;;;20.53;;
3597;SDS011;1813;52.016;8.714;2024-01-10T09:08:13;37.60;;;20.03;;
3597;SDS011;1813;52.016;8.714;2024-01-10T09:10:49;38.63;;;20.20;;
3597;SDS011;1813;52.016;8.714;2024-01-10T09:13:22;37.23;;;19.83;;
3597;SDS011;1813;52.016;8.714;2024-01-10T09:15:55;37.00;;;20.27;;
3597;SDS011;1813;52.016;8.714;2024-01-10T09:18:29;36.50;;;19.43;;
3597;SDS011;1813;52.016;8.714;2024-01-10T09:21:03;39.67;;;20.50;;
3597;SDS011;1813;52.016;8.714;2024-01-10T09:23:37;37.10;;;19.23;;
3597;SDS011;1813;52.016;8.714;2024-01-10T09:26:13;33.10;;;19.30;;
3597;SDS011;1813;52.016;8.714;2024-01-10T09:28:46;36.77;;;18.67;;
3597;SDS011;1813;52.016;8.714;2024-01-10T09:31:20;38.73;;;18.80;;
3597;SDS011;1813;52.016;8.714;2024-01-10T09:33:53;40.07;;;19.63;;
3597;SDS011;1813;52.016;8.714;2024-01-10T09:36:26;35.50;;;18.40;;
3597;SDS011;1813;52.016;8.714;2024-01-10T09:39:00;36.40;;;19.60;;
3597;SDS011;1813;52.016;8.714;2024-01-10T09:41:40;34.63;;;19.33;;
3597;SDS011;1813;52.016;8.714;2024-01-10T09:44:32;33.03;;;17.63;;
3597;SDS011;1813;52.016;8.714;2024-01-10T09:47:09;38.70;;;18.00;;
3597;SDS011;1813;52.016;8.714;2024-01-10T09:49:45;32.90;;;18.30;;
3597;SDS011;1813;52.016;8.714;2024-01-10T09:52:24;37.47;;;19.07;;
3597;SDS011;1813;52.016;8.714;2024-01-10T09:55:02;35.77;;;18.20;;
3597;SDS011;1813;52.016;8.714;2024-01-10T09:57:46;34.80;;;18.40;;
3597;SDS011;1813;52.016;8.714;2024-01-10T10:00:20;34.40;;;18.50;;
3597;SDS011;1813;52.016;8.714;2024-01-10T10:02:55;37.60;;;18.30;;
3597;SDS011;1813;52.016;8.714;2024-01-10T10:05:30;36.63;;;19.07;;
3597;SDS011;1813;52.016;8.714;2024-01-10T10:08:06;40.83;;;18.37;;
3597;SDS011;1813;52.016;8.714;2024-01-10T10:10:40;38.93;;;18.40;;
3597;SDS011;1813;52.016;8.714;2024-01-10T10:13:26;41.63;;;19.03;;
3597;SDS011;1813;52.016;8.714;2024-01-10T10:16:00;37.70;;;19.37;;
3597;SDS011;1813;52.016;8.714;2024-01-10T10:18:34;35.37;;;18.50;;
3597;SDS011;1813;52.016;8.714;2024-01-10T10:21:08;42.20;;;18.33;;
3597;SDS011;1813;52.016;8.714;2024-01-10T10:23:43;36.73;;;18.37;;
3597;SDS011;1813;52.016;8.714;2024-01-10T10:26:32;36.57;;;18.77;;
3597;SDS011;1813;52.016;8.714;2024-01-10T10:29:09;33.83;;;18.53;;
3597;SDS011;1813;52.016;8.714;2024-01-10T10:31:42;38.03;;;18.80;;
3597;SDS011;1813;52.016;8.714;2024-01-10T10:34:16;38.20;;;18.60;;
3597;SDS011;1813;52.016;8.714;2024-01-10T10:36:54;39.30;;;18.40;;
3597;SDS011;1813;52.016;8.714;2024-01-10T10:39:29;33.20;;;17.63;;
3597;SDS011;1813;52.016;8.714;2024-01-10T10:42:02;39.00;;;19.37;;
3597;SDS011;1813;52.016;8.714;2024-01-10T10:44:39;36.10;;;18.30;;
3597;SDS011;1813;52.016;8.714;2024-01-10T10:47:14;35.23;;;18.30;;
3597;SDS011;1813;52.016;8.714;2024-01-10T10:49:51;33.40;;;17.50;;
3597;SDS011;1813;52.016;8.714;2024-01-10T10:52:27;40.20;;;19.73;;
3597;SDS011;1813;52.016;8.714;2024-01-10T10:55:00;35.83;;;18.90;;
3597;SDS011;1813;52.016;8.714;2024-01-10T10:57:37;37.17;;;19.50;;
3597;SDS011;1813;52.016;8.714;2024-01-10T11:00:16;36.17;;;18.53;;
3597;SDS011;1813;52.016;8.714;2024-01-10T11:02:52;36.57;;;19.00;;
3597;SDS011;1813;52.016;8.714;2024-01-10T11:05:27;36.47;;;18.67;;
3597;SDS011;1813;52.016;8.714;2024-01-10T11:07:58;35.03;;;18.60;;
3597;SDS011;1813;52.016;8.714;2024-01-10T11:10:37;38.47;;;19.27;;
3597;SDS011;1813;52.016;8.714;2024-01-10T11:13:18;39.80;;;18.93;;
3597;SDS011;1813;52.016;8.714;2024-01-10T11:16:11;36.97;;;19.80;;
3597;SDS011;1813;52.016;8.714;2024-01-10T11:19:14;41.03;;;19.83;;
3597;SDS011;1813;52.016;8.714;2024-01-10T11:22:00;40.00;;;20.07;;
3597;SDS011;1813;52.016;8.714;2024-01-10T11:24:43;34.50;;;18.90;;
3597;SDS011;1813;52.016;8.714;2024-01-10T11:27:16;43.20;;;20.00;;
3597;SDS011;1813;52.016;8.714;2024-01-10T11:29:51;35.40;;;18.50;;
3597;SDS011;1813;52.016;8.714;2024-01-10T11:32:26;37.03;;;19.73;;
3597;SDS011;1813;52.016;8.714;2024-01-10T11:35:00;46.87;;;19.47;;
3597;SDS011;1813;52.016;8.714;2024-01-10T11:37:42;34.17;;;18.83;;
3597;SDS011;1813;52.016;8.714;2024-01-10T11:40:16;37.93;;;18.97;;
3597;SDS011;1813;52.016;8.714;2024-01-10T11:43:17;42.97;;;19.80;;
3597;SDS011;1813;52.016;8.714;2024-01-10T11:45:51;40.90;;;19.70;;
3597;SDS011;1813;52.016;8.714;2024-01-10T11:48:30;33.80;;;18.57;;
3597;SDS011;1813;52.016;8.714;2024-01-10T11:51:05;36.17;;;18.47;;
3597;SDS011;1813;52.016;8.714;2024-01-10T11:53:39;35.57;;;18.60;;
3597;SDS011;1813;52.016;8.714;2024-01-10T11:56:16;37.20;;;20.00;;
3597;SDS011;1813;52.016;8.714;2024-01-10T12:01:41;37.07;;;20.07;;
3597;SDS011;1813;52.016;8.714;2024-01-10T12:04:18;37.30;;;18.93;;
3597;SDS011;1813;52.016;8.714;2024-01-10T12:06:52;35.60;;;18.73;;
3597;SDS011;1813;52.016;8.714;2024-01-10T12:09:25;33.60;;;18.60;;
3597;SDS011;1813;52.016;8.714;2024-01-10T12:11:58;35.90;;;19.27;;
3597;SDS011;1813;52.016;8.714;2024-01-10T12:14:32;35.03;;;18.93;;
3597;SDS011;1813;52.016;8.714;2024-01-10T12:17:07;41.87;;;20.33;;
3597;SDS011;1813;52.016;8.714;2024-01-10T12:19:42;35.90;;;19.40;;
3597;SDS011;1813;52.016;8.714;2024-01-10T12:22:18;37.10;;;19.43;;
3597;SDS011;1813;52.016;8.714;2024-01-10T12:24:55;35.80;;;20.10;;
3597;SDS011;1813;52.016;8.714;2024-01-10T12:27:29;37.27;;;19.77;;
3597;SDS011;1813;52.016;8.714;2024-01-10T12:30:03;37.30;;;20.17;;
3597;SDS011;1813;52.016;8.714;2024-01-10T12:32:38;44.37;;;18.90;;
3597;SDS011;1813;52.016;8.714;2024-01-10T12:35:14;46.97;;;19.93;;
3597;SDS011;1813;52.016;8.714;2024-01-10T12:37:54;38.43;;;20.90;;
3597;SDS011;1813;52.016;8.714;2024-01-10T12:40:28;41.90;;;21.20;;
3597;SDS011;1813;52.016;8.714;2024-01-10T12:43:02;45.37;;;21.27;;
3597;SDS011;1813;52.016;8.714;2024-01-10T12:45:35;38.27;;;20.50;;
3597;SDS011;1813;52.016;8.714;2024-01-10T12:48:12;37.97;;;19.93;;
3597;SDS011;1813;52.016;8.714;2024-01-10T12:50:49;38.60;;;20.17;;
3597;SDS011;1813;52.016;8.714;2024-01-10T12:53:23;37.90;;;20.03;;
3597;SDS011;1813;52.016;8.714;2024-01-10T12:55:56;38.47;;;20.20;;
3597;SDS011;1813;52.016;8.714;2024-01-10T12:58:33;42.53;;;20.23;;
3597;SDS011;1813;52.016;8.714;2024-01-10T13:01:08;35.93;;;20.33;;
3597;SDS011;1813;52.016;8.714;2024-01-10T13:03:41;38.40;;;20.53;;
3597;SDS011;1813;52.016;8.714;2024-01-10T13:06:18;35.33;;;19.93;;
3597;SDS011;1813;52.016;8.714;2024-01-10T13:08:52;41.63;;;21.03;;
3597;SDS011;1813;52.016;8.714;2024-01-10T13:11:25;42.33;;;20.77;;
3597;SDS011;1813;52.016;8.714;2024-01-10T13:14:00;43.00;;;20.57;;
3597;SDS011;1813;52.016;8.714;2024-01-10T13:16:33;38.53;;;19.73;;
3597;SDS011;1813;52.016;8.714;2024-01-10T13:19:06;37.20;;;19.27;;
3597;SDS011;1813;52.016;8.714;2024-01-10T13:21:42;38.43;;;20.60;;
3597;SDS011;1813;52.016;8.714;2024-01-10T13:24:16;41.10;;;20.30;;
3597;SDS011;1813;52.016;8.714;2024-01-10T13:26:49;41.13;;;21.53;;
3597;SDS011;1813;52.016;8.714;2024-01-10T13:29:23;41.47;;;19.87;;
3597;SDS011;1813;52.016;8.714;2024-01-10T13:31:56;42.53;;;21.20;;
3597;SDS011;1813;52.016;8.714;2024-01-10T13:34:30;43.30;;;22.53;;
3597;SDS011;1813;52.016;8.714;2024-01-10T13:37:06;41.50;;;20.83;;
3597;SDS011;1813;52.016;8.714;2024-01-10T13:39:42;45.03;;;21.33;;
3597;SDS011;1813;52.016;8.714;2024-01-10T13:42:15;35.97;;;19.30;;
3597;SDS011;1813;52.016;8.714;2024-01-10T13:44:49;36.07;;;19.83;;
3597;SDS011;1813;52.016;8.714;2024-01-10T13:47:22;43.10;;;22.37;;
3597;SDS011;1813;52.016;8.714;2024-01-10T13:49:55;53.73;;;26.33;;
3597;SDS011;1813;52.016;8.714;2024-01-10T13:52:31;151.17;;;51.80;;
3597;SDS011;1813;52.016;8.714;2024-01-10T13:55:05;132.37;;;48.60;;
3597;SDS011;1813;52.016;8.714;2024-01-10T13:57:39;44.27;;;23.73;;
3597;SDS011;1813;52.016;8.714;2024-01-10T14:00:13;42.40;;;22.30;;
3597;SDS011;1813;52.016;8.714;2024-01-10T14:02:47;43.07;;;22.60;;
3597;SDS011;1813;52.016;8.714;2024-01-10T14:05:25;50.47;;;23.73;;
3597;SDS011;1813;52.016;8.714;2024-01-10T14:08:02;41.77;;;22.27;;
3597;SDS011;1813;52.016;8.714;2024-01-10T14:10:35;47.67;;;22.23;;
3597;SDS011;1813;52.016;8.714;2024-01-10T14:13:09;44.17;;;22.70;;
3597;SDS011;1813;52.016;8.714;2024-01-10T14:15:42;42.97;;;21.73;;
3597;SDS011;1813;52.016;8.714;2024-01-10T14:18:15;44.23;;;22.30;;
3597;SDS011;1813;52.016;8.714;2024-01-10T14:20:49;38.87;;;21.77;;
3597;SDS011;1813;52.016;8.714;2024-01-10T14:23:25;44.60;;;21.70;;
3597;SDS011;1813;52.016;8.714;2024-01-10T14:25:59;44.13;;;23.90;;
3597;SDS011;1813;52.016;8.714;2024-01-10T14:28:35;45.30;;;22.30;;
3597;SDS011;1813;52.016;8.714;2024-01-10T14:31:08;44.67;;;24.00;;
3597;SDS011;1813;52.016;8.714;2024-01-10T14:33:43;40.80;;;21.60;;
3597;SDS011;1813;52.016;8.714;2024-01-10T14:36:17;40.73;;;21.77;;
3597;SDS011;1813;52.016;8.714;2024-01-10T14:38:54;43.83;;;22.50;;
3597;SDS011;1813;52.016;8.714;2024-01-10T14:41:27;44.10;;;23.50;;
3597;SDS011;1813;52.016;8.714;2024-01-10T14:44:00;42.70;;;22.90;;
3597;SDS011;1813;52.016;8.714;2024-01-10T14:46:33;45.40;;;24.17;;
3597;SDS011;1813;52.016;8.714;2024-01-10T14:49:07;45.43;;;23.27;;
3597;SDS011;1813;52.016;8.714;2024-01-10T14:51:40;46.57;;;25.23;;
3597;SDS011;1813;52.016;8.714;2024-01-10T14:54:16;42.93;;;22.00;;
3597;SDS011;1813;52.016;8.714;2024-01-10T14:56:51;46.90;;;24.00;;
3597;SDS011;1813;52.016;8.714;2024-01-10T14:59:24;53.40;;;24.07;;
3597;SDS011;1813;52.016;8.714;2024-01-10T15:01:57;48.73;;;23.83;;
3597;SDS011;1813;52.016;8.714;2024-01-10T15:04:31;44.60;;;23.70;;
3597;SDS011;1813;52.016;8.714;2024-01-10T15:07:04;46.83;;;25.63;;
3597;SDS011;1813;52.016;8.714;2024-01-10T15:09:41;44.90;;;23.90;;
3597;SDS011;1813;52.016;8.714;2024-01-10T15:12:15;44.20;;;24.60;;
3597;SDS011;1813;52.016;8.714;2024-01-10T15:14:48;48.50;;;25.00;;
3597;SDS011;1813;52.016;8.714;2024-01-10T15:17:21;52.17;;;24.63;;
3597;SDS011;1813;52.016;8.714;2024-01-10T15:19:54;46.13;;;25.43;;
3597;SDS011;1813;52.016;8.714;2024-01-10T15:22:28;53.30;;;25.10;;
3597;SDS011;1813;52.016;8.714;2024-01-10T15:25:04;48.90;;;25.77;;
3597;SDS011;1813;52.016;8.714;2024-01-10T15:27:38;54.53;;;25.03;;
3597;SDS011;1813;52.016;8.714;2024-01-10T15:30:12;66.50;;;28.27;;
3597;SDS011;1813;52.016;8.714;2024-01-10T15:32:47;52.70;;;26.37;;
3597;SDS011;1813;52.016;8.714;2024-01-10T15:35:21;61.10;;;27.87;;
3597;SDS011;1813;52.016;8.714;2024-01-10T15:37:55;52.40;;;27.27;;
3597;SDS011;1813;52.016;8.714;2024-01-10T15:40:31;54.53;;;25.77;;